Time;durP1;ratioP1;P1;durP2;ratioP2;P2;SDS_P1;SDS_P2;PMS_P1;PMS_P2;Temp;Humidity;BMP_temperature;BMP_pressure;BME280_temperature;BME280_humidity;BME280_pressure;Samples;Min_cycle;Max_cycle;Signal;HPM_P1;HPM_P2
2021/12/11 00:01:53;;;;;;;19.83;11.50;;;;;;;6.80;60.07;94097.84;4889999;29;20025;-79
2021/12/11 00:04:40;;;;;;;17.52;10.30;;;;;;;6.76;60.18;94091.56;4888249;29;20622;-79
2021/12/11 00:07:09;;;;;;;29.10;14.20;;;;;;;6.66;60.33;94099.06;4872934;29;20041;-79
2021/12/11 00:09:56;;;;;;;30.95;17.48;;;;;;;6.63;60.74;94113.22;4889948;29;20037;-79
2021/12/11 00:12:30;;;;;;;25.85;10.82;;;;;;;6.60;60.47;94114.47;4888375;29;20524;-79
2021/12/11 00:15:09;;;;;;;22.98;11.45;;;;;;;6.59;60.51;94118.06;4875508;29;20064;-79
2021/12/11 00:17:35;;;;;;;25.20;12.07;;;;;;;6.61;60.38;94131.53;4894763;29;20059;-79
2021/12/11 00:20:03;;;;;;;29.33;13.20;;;;;;;6.57;60.63;94138.16;4894573;29;20049;-79
2021/12/11 00:22:29;;;;;;;57.30;28.25;;;;;;;6.55;60.35;94147.16;4890966;29;20047;-79
2021/12/11 00:25:00;;;;;;;67.78;35.17;;;;;;;6.50;61.12;94134.88;4895386;29;20115;-80
2021/12/11 00:27:27;;;;;;;75.78;37.03;;;;;;;6.27;62.04;94132.28;4911550;29;20624;-79
2021/12/11 00:29:53;;;;;;;48.13;25.23;;;;;;;6.14;62.09;94147.94;4894908;29;20040;-79
2021/12/11 00:32:28;;;;;;;33.10;16.33;;;;;;;6.00;63.39;94155.09;4893743;29;20054;-79
2021/12/11 00:34:55;;;;;;;14.95;10.63;;;;;;;5.86;63.98;94143.34;4877725;29;20119;-79
2021/12/11 00:37:22;;;;;;;19.00;9.88;;;;;;;5.86;63.83;94131.25;4878105;29;20037;-79
2021/12/11 00:39:59;;;;;;;16.40;9.43;;;;;;;5.87;64.06;94134.63;4878422;29;20116;-79
2021/12/11 00:42:31;;;;;;;14.75;8.60;;;;;;;5.92;64.21;94132.97;4907256;29;20517;-79
2021/12/11 00:44:59;;;;;;;16.42;9.82;;;;;;;5.99;64.02;94133.66;4878477;29;20067;-78
2021/12/11 00:47:31;;;;;;;15.30;8.38;;;;;;;6.10;63.78;94133.91;4909952;23;20052;-79
2021/12/11 00:50:04;;;;;;;15.00;8.98;;;;;;;6.07;63.09;94134.38;4896397;29;20045;-79
2021/12/11 00:52:33;;;;;;;12.10;8.05;;;;;;;5.94;64.10;94114.69;4894321;29;20029;-79
2021/12/11 00:54:59;;;;;;;;;;;;;;;5.78;64.77;94108.31;4912410;23;20052;-79
2021/12/11 00:57:25;;;;;;;;;;;;;;;5.64;64.85;94114.66;4921034;29;19930;-78
2021/12/11 01:00:12;;;;;;;;;;;;;;;5.68;65.06;94110.63;4904752;29;19928;-80
2021/12/11 01:02:37;;;;;;;;;;;;;;;5.67;65.24;94114.22;4902325;29;19923;-79
2021/12/11 01:05:03;;;;;;;;;;;;;;;5.69;65.40;94122.50;4884710;29;19919;-79
2021/12/11 01:07:31;;;;;;;;;;;;;;;5.64;65.23;94119.81;4887257;29;19923;-79
2021/12/11 01:10:08;;;;;;;;;;;;;;;5.67;65.14;94111.63;4904711;29;20023;-79
2021/12/11 01:12:44;;;;;;;;;;;;;;;5.74;65.17;94114.94;4879441;29;20391;-79
2021/12/11 01:15:25;;;;;;;;;;;;;;;5.69;65.03;94105.28;4871103;29;19919;-79
2021/12/11 01:18:03;;;;;;;;;;;;;;;5.74;64.88;94112.34;4903843;29;19991;-80
2021/12/11 01:20:35;;;;;;;;;;;;;;;5.77;64.39;94111.91;4903645;29;19923;-80
2021/12/11 01:23:01;;;;;;;;;;;;;;;5.75;64.36;94108.75;4903725;29;19926;-80
2021/12/11 01:25:27;;;;;;;;;;;;;;;5.79;63.55;94112.47;4903702;29;19924;-80
2021/12/11 01:27:54;;;;;;;;;;;;;;;5.82;64.09;94112.03;4886625;29;20015;-80
2021/12/11 01:30:21;;;;;;;;;;;;;;;5.73;64.46;94113.34;4887458;29;19991;-80
2021/12/11 01:32:46;;;;;;;;;;;;;;;5.68;62.93;94110.63;4886943;29;19929;-80
2021/12/11 01:35:12;;;;;;;;;;;;;;;5.66;63.70;94113.44;4870777;29;19964;-79
2021/12/11 01:37:37;;;;;;;;;;;;;;;5.58;63.52;94105.22;4885794;29;20016;-79
2021/12/11 01:40:04;;;;;;;;;;;;;;;5.54;63.09;94109.25;4869997;29;20310;-80
2021/12/11 01:42:30;;;;;;;;;;;;;;;5.51;63.39;94109.66;4869816;29;19919;-79
2021/12/11 01:44:55;;;;;;;;;;;;;;;5.41;63.29;94100.66;4902763;29;19919;-79
2021/12/11 01:47:25;;;;;;;;;;;;;;;5.27;63.94;94094.09;4870008;29;20302;-79
2021/12/11 01:49:51;;;;;;;;;;;;;;;5.21;63.93;94089.00;4885773;29;20372;-79
2021/12/11 01:52:19;;;;;;;;;;;;;;;5.22;64.35;94100.91;4869236;29;19920;-79
2021/12/11 01:54:45;;;;;;;;;;;;;;;5.27;63.86;94088.13;4887176;29;19944;-80
2021/12/11 01:57:22;;;;;;;4.07;3.70;;;;;;;5.30;63.75;94080.75;4886115;29;19959;-79
2021/12/11 01:59:53;;;;;;;4.10;3.80;;;;;;;5.32;63.48;94090.84;4881344;29;20068;-78
2021/12/11 02:02:26;;;;;;;5.10;3.80;;;;;;;5.35;62.81;94095.56;4903155;29;20072;-78
2021/12/11 02:04:53;;;;;;;3.95;3.58;;;;;;;5.32;63.18;94096.78;4871897;29;20065;-79
2021/12/11 02:07:28;;;;;;;4.40;4.00;;;;;;;5.47;62.34;94085.31;4902515;29;20725;-79
2021/12/11 02:09:58;;;;;;;3.85;3.55;;;;;;;5.46;63.28;94076.00;4885304;29;20041;-79
2021/12/11 02:12:37;;;;;;;4.28;3.88;;;;;;;5.42;63.30;94076.44;4871167;29;20045;-79
2021/12/11 02:15:09;;;;;;;4.40;3.88;;;;;;;5.46;62.94;94060.53;4884928;29;20150;-78
2021/12/11 02:18:01;;;;;;;4.45;4.05;;;;;;;5.38;63.30;94080.47;4929243;23;20030;-79
2021/12/11 02:20:31;;;;;;;3.78;3.47;;;;;;;5.23;63.31;94082.63;4925363;29;20048;-79
2021/12/11 02:22:57;;;;;;;4.38;4.03;;;;;;;5.37;63.09;94086.63;4916611;29;20049;-79
2021/12/11 02:25:31;;;;;;;5.25;3.85;;;;;;;5.26;63.16;94092.50;4893049;29;20566;-80
2021/12/11 02:28:21;;;;;;;4.50;4.07;;;;;;;5.15;63.69;94093.22;4891193;29;20045;-79
2021/12/11 02:31:11;;;;;;;6.20;3.92;;;;;;;5.21;63.72;94100.09;4892287;29;20487;-79
2021/12/11 02:33:55;;;;;;;5.57;4.15;;;;;;;5.27;63.34;94093.28;4890286;29;20044;-79
2021/12/11 02:36:28;;;;;;;4.50;4.10;;;;;;;5.24;64.10;94084.22;4892852;29;20068;-79
2021/12/11 02:38:53;;;;;;;;;;;;;;;5.14;64.16;94083.91;4893432;29;20052;-79
2021/12/11 02:41:19;;;;;;;7.38;4.72;;;;;;;5.03;64.87;94076.91;4891760;29;19919;-79
2021/12/11 02:43:51;;;;;;;5.25;4.75;;;;;;;4.97;64.58;94072.63;4891578;29;20036;-79
2021/12/11 02:46:34;;;;;;;6.10;5.47;;;;;;;5.16;64.75;94071.59;4888797;29;20415;-79
2021/12/11 02:49:25;;;;;;;6.87;5.60;;;;;;;5.49;63.83;94065.25;4888916;29;20422;-79
2021/12/11 02:51:55;;;;;;;10.55;4.90;;;;;;;5.46;63.30;94066.47;4891522;29;20040;-79
2021/12/11 02:55:02;;;;;;;6.97;5.70;;;;;;;5.63;62.88;94051.97;4874769;29;20464;-79
2021/12/11 02:57:31;;;;;;;7.40;5.80;;;;;;;5.86;62.34;94061.59;4883565;29;20442;-79
2021/12/11 03:00:04;;;;;;;;;;;;;;;6.00;62.00;94062.19;4876074;29;20068;-79
2021/12/11 03:02:30;;;;;;;;;;;;;;;5.92;62.51;94055.56;4889957;29;20102;-79
2021/12/11 03:05:05;;;;;;;;;;;;;;;5.84;62.52;94050.66;4889827;29;19919;-79
2021/12/11 03:07:36;;;;;;;;;;;;;;;5.67;62.41;94047.94;4882771;29;19919;-79
2021/12/11 03:10:02;;;;;;;;;;;;;;;5.49;63.47;94055.72;4890529;29;19919;-79
2021/12/11 03:15:04;;;;;;;;;;;;;;;5.24;64.85;94058.44;4936774;29;19958;-79
2021/12/11 03:17:30;;;;;;;;;;;;;;;5.25;65.07;94062.59;4947546;23;19917;-79
2021/12/11 03:19:55;;;;;;;;;;;;;;;5.10;65.42;94051.84;4920182;29;19923;-80
2021/12/11 03:22:22;;;;;;;;;;;;;;;4.99;65.54;94043.06;4899966;29;20354;-79
2021/12/11 03:24:48;;;;;;;;;;;;;;;4.88;66.30;94042.97;4866276;29;19923;-79
2021/12/11 03:27:13;;;;;;;5.53;5.03;;;;;;;4.74;66.30;94043.16;4899524;29;19937;-79
2021/12/11 03:29:39;;;;;;;7.10;5.35;;;;;;;4.79;67.00;94035.56;4898550;29;20410;-79
2021/12/11 03:32:06;;;;;;;5.77;5.27;;;;;;;4.99;66.83;94034.53;4881238;29;20461;-79
2021/12/11 03:34:31;;;;;;;;;;;;;;;5.06;65.88;94033.47;4852837;29;20493;-79
2021/12/11 03:36:56;;;;;;;;;;;;;;;4.88;66.88;94017.22;4866857;29;19923;-79
2021/12/11 03:39:26;;;;;;;6.55;5.32;;;;;;;4.80;67.40;94019.09;4870116;29;19923;-80
2021/12/11 03:41:53;;;;;;;4.22;3.92;;;;;;;4.73;67.54;94020.19;4853414;29;20048;-79
2021/12/11 03:44:19;;;;;;;5.53;4.93;;;;;;;4.68;68.30;94023.38;5620532;23;20370;-80
2021/12/11 03:46:45;;;;;;;4.20;3.80;;;;;;;4.72;68.02;94018.63;4937395;29;20046;-80
2021/12/11 03:49:14;;;;;;;4.95;4.45;;;;;;;4.72;67.88;94013.47;4902096;29;20067;-79
2021/12/11 03:51:40;;;;;;;5.60;3.90;;;;;;;4.76;68.19;94019.75;4937481;29;20028;-80
2021/12/11 03:54:11;;;;;;;5.22;4.50;;;;;;;4.75;68.30;94021.53;4936679;29;20036;-80
2021/12/11 03:56:37;;;;;;;4.65;3.70;;;;;;;4.81;67.65;94018.09;4919401;29;20441;-80
2021/12/11 03:59:08;;;;;;;4.78;4.38;;;;;;;4.85;68.31;94022.81;4890008;29;20054;-80
2021/12/11 04:01:40;;;;;;;5.25;4.75;;;;;;;4.92;67.92;94029.47;4938645;29;20194;-80
2021/12/11 04:04:09;;;;;;;4.35;4.05;;;;;;;4.95;67.77;94038.56;4883995;24;20049;-80
2021/12/11 04:06:34;;;;;;;7.78;4.93;;;;;;;5.14;67.68;94045.25;4898767;29;20173;-80
2021/12/11 04:09:00;;;;;;;4.72;4.10;;;;;;;5.33;66.50;94054.53;4900992;29;20040;-80
2021/12/11 04:11:28;;;;;;;4.68;4.20;;;;;;;5.54;66.12;94058.47;4901059;29;20041;-81
2021/12/11 04:13:57;;;;;;;8.00;4.35;;;;;;;5.72;65.48;94044.72;4875173;29;20128;-80
2021/12/11 04:16:22;;;;;;;6.03;4.15;;;;;;;5.82;65.10;94044.94;4883295;29;20048;-80
2021/12/11 04:18:48;;;;;;;5.05;4.05;;;;;;;5.92;64.49;94045.25;4852413;29;20151;-80
2021/12/11 04:21:13;;;;;;;4.65;4.00;;;;;;;5.90;64.30;94042.09;4868601;29;20079;-80
2021/12/11 04:23:39;;;;;;;5.15;3.72;;;;;;;5.90;64.64;94033.56;4867376;29;20033;-80
2021/12/11 04:26:05;;;;;;;3.70;3.40;;;;;;;5.91;64.98;94033.34;4901455;29;20044;-80
2021/12/11 04:28:32;;;;;;;4.40;3.85;;;;;;;5.88;64.31;94033.75;4899016;29;20048;-80
2021/12/11 04:31:04;;;;;;;4.28;3.88;;;;;;;6.03;64.08;94032.59;4883077;29;20044;-81
2021/12/11 04:33:33;;;;;;;4.07;3.60;;;;;;;5.99;64.27;94017.53;4896820;24;20171;-80
2021/12/11 04:35:58;;;;;;;3.80;3.50;;;;;;;6.08;64.16;94018.00;4899010;29;20048;-80
2021/12/11 04:38:24;;;;;;;4.22;3.90;;;;;;;6.15;64.34;94020.47;4883134;29;20033;-80
2021/12/11 04:40:53;;;;;;;4.03;3.67;;;;;;;6.20;64.53;94007.69;4899432;29;20067;-80
2021/12/11 04:43:22;;;;;;;3.78;3.47;;;;;;;6.35;64.15;94013.19;4881928;29;20065;-80
2021/12/11 04:45:54;;;;;;;3.60;3.30;;;;;;;6.26;63.54;94017.13;4876181;29;20425;-80
2021/12/11 04:48:41;;;;;;;3.42;3.20;;;;;;;6.38;64.10;94012.75;4880889;29;20417;-80
2021/12/11 04:51:18;;;;;;;4.78;4.38;;;;;;;6.54;63.41;94001.72;4882167;29;20494;-79
2021/12/11 05:09:20;;;;;;;4.10;3.70;;;;;;;6.52;64.34;94013.31;4880996;29;20410;-81
2021/12/11 05:11:57;;;;;;;5.25;3.53;;;;;;;6.70;63.84;94020.13;4900273;29;20427;-80
2021/12/11 05:14:23;;;;;;;3.58;3.30;;;;;;;6.75;63.49;94023.59;4923284;23;20545;-80
2021/12/11 05:16:49;;;;;;;4.65;3.90;;;;;;;6.81;64.21;94001.22;4900203;29;20505;-80
2021/12/11 05:19:15;;;;;;;9.03;3.90;;;;;;;6.91;63.03;94001.44;4883083;29;20518;-80
2021/12/11 05:21:40;;;;;;;4.50;3.90;;;;;;;7.03;63.11;94009.94;4867413;29;20414;-80
2021/12/11 05:24:06;;;;;;;4.00;3.70;;;;;;;6.95;63.47;94017.25;4867147;29;20415;-80
2021/12/11 05:26:31;;;;;;;3.58;3.28;;;;;;;6.67;64.36;94012.81;4890517;29;20474;-80
2021/12/11 05:28:57;;;;;;;4.47;3.90;;;;;;;6.80;64.10;94020.31;4882762;29;20424;-80
2021/12/11 05:31:22;;;;;;;4.07;3.77;;;;;;;6.63;64.58;94010.69;4883144;29;20768;-80
2021/12/11 05:33:48;;;;;;;3.80;3.50;;;;;;;6.64;64.14;94006.31;4890993;29;20411;-80
2021/12/11 05:36:17;;;;;;;4.18;3.50;;;;;;;6.50;64.94;94010.91;4898669;29;20414;-80
2021/12/11 05:38:43;;;;;;;3.40;3.10;;;;;;;6.46;64.82;94004.63;4873343;29;20455;-80
2021/12/11 05:41:11;;;;;;;4.38;3.85;;;;;;;6.62;64.48;94009.13;4889075;29;20416;-80
2021/12/11 05:43:37;;;;;;;3.70;3.30;;;;;;;6.60;64.10;94011.16;4858211;29;20414;-80
2021/12/11 05:46:03;;;;;;;6.37;3.87;;;;;;;6.70;64.25;94005.41;4874942;29;20527;-81
2021/12/11 05:48:28;;;;;;;3.80;3.45;;;;;;;6.81;63.99;94012.34;5443836;23;20532;-78
2021/12/11 05:50:57;;;;;;;4.33;3.67;;;;;;;6.81;63.60;94012.34;4914709;29;20426;-79
2021/12/11 05:53:23;;;;;;;4.20;3.60;;;;;;;6.80;63.73;94010.78;4905063;29;20462;-79
2021/12/11 05:55:50;;;;;;;4.45;3.60;;;;;;;6.85;63.51;94007.53;4892378;29;20856;-81
2021/12/11 05:58:25;;;;;;;4.80;4.10;;;;;;;6.85;63.32;94007.53;4880011;29;20442;-81
2021/12/11 06:00:50;;;;;;;4.10;3.50;;;;;;;6.99;62.98;94018.38;4883859;23;20387;-80
2021/12/11 06:03:16;;;;;;;5.17;4.17;;;;;;;7.17;62.80;94021.59;4913037;23;21019;-79
2021/12/11 06:05:41;;;;;;;4.47;4.07;;;;;;;7.41;62.40;94026.69;4900735;29;20418;-80
2021/12/11 06:08:08;;;;;;;8.60;4.97;;;;;;;7.63;62.06;94024.22;4867807;29;20489;-80
2021/12/11 06:10:34;;;;;;;21.55;12.10;;;;;;;7.79;62.88;94028.63;4883654;29;20422;-80
2021/12/11 06:13:00;;;;;;;38.08;23.90;;;;;;;7.89;63.06;94025.44;4853092;29;20422;-78
2021/12/11 06:15:25;;;;;;;58.65;36.95;;;;;;;7.93;62.29;94011.00;4883652;29;20456;-79
2021/12/11 06:17:51;;;;;;;51.72;34.20;;;;;;;8.05;62.45;94016.91;4882356;29;20462;-81
2021/12/11 06:20:20;;;;;;;107.53;61.07;;;;;;;8.19;61.71;94033.72;4897561;29;20414;-80
2021/12/11 06:22:45;;;;;;;139.25;82.40;;;;;;;8.24;62.40;94033.00;4899988;29;20410;-81
2021/12/11 06:25:16;;;;;;;92.50;57.17;;;;;;;8.24;62.42;94031.19;4882522;29;20414;-81
2021/12/11 06:27:42;;;;;;;87.30;53.92;;;;;;;8.30;61.11;94034.66;4852423;29;20505;-81
2021/12/11 06:30:08;;;;;;;91.95;59.47;;;;;;;8.35;60.51;94038.13;4882125;29;20934;-81
2021/12/11 06:32:34;;;;;;;71.07;43.10;;;;;;;8.43;59.89;94032.53;4874096;29;20406;-80
2021/12/11 06:35:01;;;;;;;63.50;38.90;;;;;;;8.46;59.55;94028.72;4881531;29;20429;-80
2021/12/11 06:37:26;;;;;;;58.42;36.20;;;;;;;8.54;59.08;94033.47;4899326;29;21088;-81
2021/12/11 06:39:52;;;;;;;25.60;17.90;;;;;;;8.56;58.65;94038.41;4881913;29;20434;-80
2021/12/11 06:42:18;;;;;;;20.30;13.83;;;;;;;8.60;58.99;94024.75;4865604;29;20425;-80
2021/12/11 06:44:44;;;;;;;20.85;12.18;;;;;;;8.57;58.57;94037.41;4881999;29;21211;-80
2021/12/11 06:47:10;;;;;;;19.57;12.43;;;;;;;8.58;58.38;94033.78;4882222;29;20505;-81
2021/12/11 06:49:36;;;;;;;33.75;21.75;;;;;;;8.65;58.35;94031.81;4881651;29;20505;-80
2021/12/11 06:52:04;;;;;;;24.00;14.02;;;;;;;8.72;58.15;94029.81;4881640;29;20420;-81
2021/12/11 06:54:29;;;;;;;15.57;12.23;;;;;;;8.64;58.61;94025.06;4882205;29;20890;-80
2021/12/11 06:56:55;;;;;;;16.17;10.65;;;;;;;8.71;57.57;94016.09;4881673;29;20450;-80
2021/12/11 06:59:20;;;;;;;17.85;10.23;;;;;;;8.67;57.94;94014.22;4865939;29;20544;-80
2021/12/11 07:01:46;;;;;;;15.70;9.97;;;;;;;8.73;58.12;94015.84;4866741;29;20445;-81
2021/12/11 07:04:11;;;;;;;14.17;8.73;;;;;;;8.85;57.20;94016.53;4899744;29;20410;-80
2021/12/11 07:06:39;;;;;;;13.75;8.90;;;;;;;8.79;56.82;94007.13;4881672;29;20414;-80
2021/12/11 07:09:05;;;;;;;13.93;8.93;;;;;;;8.81;57.30;94005.06;4865271;29;20414;-80
2021/12/11 07:11:33;;;;;;;14.20;9.18;;;;;;;8.75;57.07;94011.19;4881796;29;20418;-79
2021/12/11 07:13:59;;;;;;;13.00;9.95;;;;;;;8.79;58.00;94004.53;4898041;29;20418;-81
2021/12/11 07:16:24;;;;;;;15.07;10.70;;;;;;;8.74;57.84;93999.28;4881689;29;20432;-81
2021/12/11 07:18:50;;;;;;;15.48;10.30;;;;;;;8.89;57.84;94002.06;4895801;29;20430;-80
2021/12/11 07:21:15;;;;;;;16.30;11.97;;;;;;;8.84;58.04;93998.63;4880842;29;20489;-81
2021/12/11 07:23:45;;;;;;;34.00;22.80;;;;;;;8.88;58.05;93991.94;4895558;29;20426;-81
2021/12/11 07:26:15;;;;;;;55.17;34.17;;;;;;;8.85;58.17;93995.78;4884380;29;20430;-79
2021/12/11 07:28:50;;;;;;;63.45;40.63;;;;;;;8.81;58.39;93992.13;4883189;29;20554;-83
2021/12/11 07:31:15;;;;;;;57.08;36.47;;;;;;;8.98;58.33;94000.63;4877650;29;20420;-82
2021/12/11 07:33:41;;;;;;;50.08;29.27;;;;;;;9.17;57.21;93993.31;4868686;29;20405;-82
2021/12/11 07:36:12;;;;;;;40.30;23.00;;;;;;;9.39;56.68;93979.53;4884524;29;20929;-83
2021/12/11 07:38:38;;;;;;;28.23;18.77;;;;;;;9.54;56.62;93998.63;4901030;29;20965;-83
2021/12/11 07:41:06;;;;;;;28.13;18.55;;;;;;;9.70;55.39;94001.38;4903248;29;20418;-84
2021/12/11 07:43:31;;;;;;;30.33;17.15;;;;;;;9.81;55.57;93997.84;4904609;29;20443;-84
2021/12/11 07:45:57;;;;;;;26.50;14.38;;;;;;;9.95;54.98;93988.63;4886860;29;20422;-84
2021/12/11 07:48:23;;;;;;;17.90;13.20;;;;;;;10.10;54.48;93990.56;4871666;29;20429;-83
2021/12/11 07:50:49;;;;;;;22.17;14.13;;;;;;;10.21;54.49;93987.78;4872527;29;20421;-84
2021/12/11 07:53:17;;;;;;;21.23;14.73;;;;;;;10.22;54.46;93989.34;4887733;29;20422;-83
2021/12/11 07:55:43;;;;;;;23.57;15.10;;;;;;;10.31;53.95;93991.50;4874388;29;20406;-83
2021/12/11 07:58:09;;;;;;;21.50;15.00;;;;;;;10.31;54.29;93991.50;4855045;29;20430;-84
2021/12/11 08:00:36;;;;;;;22.30;15.05;;;;;;;10.33;54.16;93981.66;4873272;29;20505;-84
2021/12/11 08:03:01;;;;;;;22.35;15.50;;;;;;;10.26;53.86;93975.91;4885001;29;20426;-83
2021/12/11 08:05:27;;;;;;;28.37;16.37;;;;;;;10.30;53.37;93971.75;4904482;29;20534;-83
2021/12/11 08:07:53;;;;;;;22.95;16.20;;;;;;;10.36;54.52;93973.34;4904873;29;20406;-83
2021/12/11 08:10:21;;;;;;;22.60;16.27;;;;;;;10.42;54.14;93982.75;4872987;29;20418;-82
2021/12/11 08:12:49;;;;;;;24.25;17.05;;;;;;;10.43;54.07;93984.31;4875363;29;20406;-83
2021/12/11 08:15:15;;;;;;;28.95;16.75;;;;;;;10.41;53.21;93981.16;4905620;29;20414;-83
2021/12/11 08:17:41;;;;;;;29.85;18.20;;;;;;;10.42;53.23;93993.94;4913346;29;20434;-82
2021/12/11 08:20:08;;;;;;;30.47;19.93;;;;;;;10.40;53.52;93980.38;4912733;29;20441;-83
2021/12/11 08:22:33;;;;;;;32.53;20.30;;;;;;;10.60;52.91;93984.94;4911529;29;20414;-83
2021/12/11 08:25:01;;;;;;;35.27;22.30;;;;;;;10.58;52.36;93991.44;4909244;29;20466;-83
2021/12/11 08:27:28;;;;;;;43.77;23.27;;;;;;;10.33;53.23;93974.63;4909715;29;20418;-83
2021/12/11 08:29:53;;;;;;;33.88;23.60;;;;;;;10.48;52.92;93976.53;4877481;29;20422;-83
2021/12/11 08:32:19;;;;;;;38.70;23.83;;;;;;;10.58;53.60;93981.81;4923440;23;20447;-82
2021/12/11 08:34:45;;;;;;;36.95;25.60;;;;;;;10.45;53.85;93975.22;4926794;29;20413;-84
2021/12/11 08:37:12;;;;;;;37.28;24.20;;;;;;;10.58;53.08;93975.84;4891648;29;20453;-84
2021/12/11 08:39:39;;;;;;;36.03;24.20;;;;;;;10.37;54.29;93969.72;4923536;29;20483;-84
2021/12/11 08:44:39;;;;;;;39.95;23.98;;;;;;;9.89;54.69;93979.19;5013330;23;20519;-85
2021/12/11 08:47:10;;;;;;;36.28;22.85;;;;;;;9.94;54.33;93971.47;4932666;29;20394;-84
2021/12/11 08:49:37;;;;;;;39.45;22.80;;;;;;;10.00;54.97;93970.47;4879054;29;20426;-85
2021/12/11 08:52:05;;;;;;;28.08;16.70;;;;;;;9.96;53.70;93964.22;4897265;29;20930;-77
2021/12/11 08:54:33;;;;;;;27.45;19.00;;;;;;;10.05;54.35;93967.13;4900246;29;20992;-77
2021/12/11 08:57:00;;;;;;;19.27;12.23;;;;;;;10.07;53.33;93960.66;4903816;29;20413;-86
2021/12/11 08:59:26;;;;;;;12.15;8.57;;;;;;;10.04;52.54;93950.75;4905950;29;20449;-81
2021/12/11 09:02:06;;;;;;;17.50;9.30;;;;;;;10.22;51.87;93955.59;4889047;29;20535;-79
2021/12/11 09:04:39;;;;;;;10.10;7.38;;;;;;;10.07;52.59;93955.44;4903755;29;20426;-79
2021/12/11 09:07:29;;;;;;;10.70;6.73;;;;;;;10.21;51.08;93951.44;4900346;29;20426;-79
2021/12/11 09:09:59;;;;;;;9.00;6.32;;;;;;;10.39;51.56;93946.84;4869537;29;20476;-79
2021/12/11 09:12:33;;;;;;;11.20;6.00;;;;;;;10.59;51.00;93939.19;4868238;29;20410;-79
2021/12/11 09:15:08;;;;;;;10.70;6.13;;;;;;;10.68;50.52;93929.06;4868946;29;20414;-79
2021/12/11 09:17:37;;;;;;;7.85;5.80;;;;;;;10.58;50.37;93927.22;4882772;29;21009;-79
2021/12/11 09:20:14;;;;;;;10.10;6.03;;;;;;;10.50;50.84;93922.50;4871550;29;20977;-79
2021/12/11 09:22:44;;;;;;;8.38;4.60;;;;;;;10.37;50.25;93913.31;4894687;29;20484;-79
2021/12/11 09:25:25;;;;;;;5.07;4.30;;;;;;;10.20;50.79;93916.06;4858950;29;20475;-79
2021/12/11 09:27:54;;;;;;;6.28;4.68;;;;;;;10.11;50.98;93914.97;4871411;29;20398;-79
2021/12/11 09:30:33;;;;;;;6.05;4.50;;;;;;;10.05;50.87;93910.75;4886140;29;20442;-79
2021/12/11 09:33:02;;;;;;;6.18;4.05;;;;;;;9.50;52.72;93904.13;4857812;29;20948;-79
2021/12/11 09:35:31;;;;;;;4.93;3.97;;;;;;;9.72;52.42;93911.81;4871162;29;20425;-79
2021/12/11 09:38:06;;;;;;;7.13;4.10;;;;;;;9.89;51.58;93901.31;4870201;29;20441;-79
2021/12/11 09:40:32;;;;;;;6.68;4.70;;;;;;;9.89;51.37;93906.50;4887236;29;20414;-79
2021/12/11 09:42:57;;;;;;;9.47;4.77;;;;;;;10.08;50.87;93897.28;4900619;29;20894;-78
2021/12/11 09:45:26;;;;;;;7.37;4.27;;;;;;;10.28;51.14;93894.06;4901296;29;20422;-78
2021/12/11 09:47:58;;;;;;;7.63;4.37;;;;;;;10.37;50.42;93897.72;4865561;29;20436;-78
2021/12/11 09:50:29;;;;;;;4.87;4.07;;;;;;;10.28;50.08;93903.66;4885682;29;20521;-78
2021/12/11 09:52:56;;;;;;;5.03;4.00;;;;;;;10.35;50.23;93896.41;4871973;29;20510;-78
2021/12/11 09:55:24;;;;;;;3.73;3.07;;;;;;;10.34;49.98;93887.06;4881257;29;20414;-77
2021/12/11 09:57:52;;;;;;;6.53;4.30;;;;;;;10.45;49.95;93876.47;4864935;29;20516;-78
2021/12/11 10:00:23;;;;;;;4.32;3.60;;;;;;;10.09;50.75;93874.69;4880211;29;20462;-77
2021/12/11 10:02:49;;;;;;;4.63;3.63;;;;;;;9.98;51.23;93873.84;4881030;29;20091;-79
2021/12/11 10:05:38;;;;;;;7.15;4.07;;;;;;;9.73;52.44;93866.66;4866412;29;20033;-78
2021/12/11 10:08:31;;;;;;;4.60;3.92;;;;;;;9.60;52.30;93880.09;4898738;29;20120;-80
2021/12/11 10:11:27;;;;;;;5.03;4.07;;;;;;;9.43;53.43;93867.22;4886510;29;20036;-79
2021/12/11 10:14:02;;;;;;;8.70;4.87;;;;;;;9.55;52.79;93865.22;5064951;23;20452;-77
2021/12/11 10:16:33;;;;;;;7.70;4.70;;;;;;;9.31;53.17;93864.00;4937886;29;20071;-81
2021/12/11 10:18:59;;;;;;;8.30;4.90;;;;;;;9.35;53.15;93875.47;4915629;29;20088;-79
2021/12/11 10:21:33;;;;;;;10.93;5.50;;;;;;;9.49;53.26;93876.63;4932386;29;20445;-83
2021/12/11 10:24:11;;;;;;;11.77;5.35;;;;;;;9.55;53.19;93875.63;4903603;29;20051;-85
2021/12/11 10:26:36;;;;;;;5.88;4.80;;;;;;;9.55;53.34;93869.66;4915693;29;20040;-81
2021/12/11 10:29:10;;;;;;;10.43;5.22;;;;;;;9.67;53.36;93874.66;4931725;29;20038;-86
2021/12/11 10:31:57;;;;;;;8.07;6.05;;;;;;;9.74;53.31;93868.22;4902049;29;20554;-85
2021/12/11 10:34:24;;;;;;;9.80;5.10;;;;;;;9.68;52.56;93863.25;4946830;24;20059;-86
2021/12/11 10:36:54;;;;;;;6.97;5.00;;;;;;;9.45;53.65;93865.16;4868658;29;20074;-82
2021/12/11 10:39:19;;;;;;;7.97;5.30;;;;;;;9.33;53.96;93861.94;4852406;29;20076;-82
2021/12/11 10:42:03;;;;;;;11.05;5.25;;;;;;;9.31;54.05;93857.00;4871494;29;20513;-81
2021/12/11 10:44:32;;;;;;;9.27;5.40;;;;;;;9.05;55.49;93849.25;4875991;29;20471;-81
2021/12/11 10:47:03;;;;;;;12.32;6.55;;;;;;;8.87;55.47;93850.38;4857179;29;20040;-78
2021/12/11 10:49:29;;;;;;;10.05;7.18;;;;;;;8.64;56.73;93846.25;4866942;29;20439;-81
2021/12/11 10:51:59;;;;;;;;;;;;;;;8.62;57.06;93836.13;4834161;29;20064;-81
2021/12/11 10:54:25;;;;;;;;;;;;;;;8.72;56.92;93835.44;4850357;29;19943;-82
2021/12/11 10:56:50;;;;;;;;;;;;;;;8.54;57.92;93833.97;4848748;29;20486;-83
2021/12/11 10:59:26;;;;;;;;;;;;;;;8.36;57.00;93836.88;4865735;29;19936;-81
2021/12/11 11:01:51;;;;;;;;;;;;;;;8.34;58.06;93829.34;4865781;29;19924;-81
2021/12/11 11:04:22;;;;;;;;;;;;;;;8.32;57.69;93825.41;4861578;29;19924;-78
2021/12/11 11:06:48;;;;;;;;;;;;;;;8.40;58.01;93823.19;4860504;29;19953;-80
2021/12/11 11:09:14;;;;;;;;;;;;;;;8.50;58.13;93819.94;4863909;29;19924;-81
2021/12/11 11:11:39;;;;;;;;;;;;;;;8.64;57.57;93822.94;4846742;29;19947;-79
2021/12/11 11:14:05;;;;;;;;;;;;;;;8.79;57.11;93819.72;4862971;29;19979;-81
2021/12/11 11:16:30;;;;;;;;;;;;;;;8.93;56.30;93805.31;4850926;29;19924;-82
2021/12/11 11:18:56;;;;;;;;;;;;;;;8.95;56.55;93804.06;4850352;29;19980;-80
2021/12/11 11:21:33;;;;;;;;;;;;;;;8.88;56.68;93813.81;4865062;29;19983;-82
2021/12/11 11:23:59;;;;;;;;;;;;;;;8.95;56.36;93803.28;4864525;29;19920;-82
2021/12/11 11:26:27;;;;;;;;;;;;;;;8.97;55.96;93801.22;4865000;29;19964;-81
2021/12/11 11:28:52;;;;;;;;;;;;;;;9.07;56.14;93790.91;5206595;23;19930;-80
2021/12/11 11:31:19;;;;;;;;;;;;;;;9.18;55.96;93789.19;4941968;29;19934;-82
2021/12/11 11:33:44;;;;;;;;;;;;;;;9.23;56.14;93784.81;4930878;29;19927;-81
2021/12/11 11:36:11;;;;;;;;;;;;;;;9.42;55.55;93780.03;4908982;29;19929;-82
2021/12/11 11:38:37;;;;;;;;;;;;;;;9.54;56.15;93772.84;4907130;29;19926;-82
2021/12/11 11:41:06;;;;;;;;;;;;;;;9.70;55.28;93770.34;4907320;29;19923;-81
2021/12/11 11:43:31;;;;;;;;;;;;;;;9.83;54.80;93762.88;4908763;29;19991;-82
2021/12/11 11:46:03;;;;;;;;;;;;;;;9.89;54.80;93761.09;4907330;29;20061;-82
2021/12/11 11:48:30;;;;;;;;;;;;;;;10.05;54.13;93765.31;4918359;29;20039;-81
2021/12/11 11:50:55;;;;;;;;;;;;;;;9.97;55.09;93765.03;4919506;29;19926;-81
2021/12/11 11:53:24;;;;;;;;;;;;;;;9.95;55.14;93765.28;4901935;29;19946;-81
2021/12/11 11:55:50;;;;;;;;;;;;;;;9.73;56.41;93762.81;4903239;29;20002;-81
2021/12/11 11:58:20;;;;;;;;;;;;;;;9.93;55.41;93767.34;5096622;23;19972;-80
2021/12/11 12:00:53;;;;;;;;;;;;;;;10.07;55.92;93758.03;4901539;29;19923;-80
2021/12/11 12:03:19;;;;;;;;;;;;;;;10.22;55.11;93755.53;4914825;29;19919;-80
2021/12/11 12:05:46;;;;;;;;;;;;;;;10.03;55.94;93751.03;4911253;29;19941;-80
2021/12/11 12:08:15;;;;;;;;;;;;;;;10.12;55.79;93750.28;4913097;29;19950;-79
2021/12/11 12:10:40;;;;;;;;;;;;;;;10.17;56.01;93746.91;4904089;29;19990;-79
2021/12/11 12:13:07;;;;;;;;;;;;;;;10.18;55.91;93754.47;4919892;29;20399;-82
2021/12/11 12:15:34;;;;;;;;;;;;;;;10.26;56.56;93747.25;4909656;29;19954;-81
2021/12/11 12:17:59;;;;;;;;;;;;;;;10.47;55.69;93754.84;4913673;29;19919;-81
2021/12/11 12:20:27;;;;;;;;;;;;;;;10.55;55.78;93750.94;4912379;29;19919;-81
2021/12/11 12:22:53;;;;;;;;;;;;;;;10.45;56.10;93758.75;4904123;29;19943;-81
2021/12/11 12:25:18;;;;;;;;;;;;;;;10.35;56.65;93761.28;4914954;29;19919;-78